Ritter, Iowa
Current Conditions -  °F | °C
As of 2:15 PM on Wednesday 26 Nov 2014 (Local Time) from KSHL Reporting Station
Overcast Overcast  
Wind Chill:   Ceiling: 1300
Heat Index: 21°   Visibility: 8mi
Dew Point: 18°   Wind: 21mph
Humidity: 86%   Direction: 350°N
Pressure: 30.2"   Gusts: NA
Location:  43.1723°N, 95.8037°W
Report Text: KSHL 262015Z AUTO 35018KT 8SM OVC013 M06/M08 A3020 RMK AO2
Loading
Personal Weather Stations






























Interactive Weather Map New forecast layout! Learn more

10-Day Weather Forecast

Advertisements
Track Severe Weather on mobile